createdAt,value
2022-09-30T00:01:57.150Z,54.95
2022-09-30T00:04:25.843Z,54.86
2022-09-30T00:06:54.930Z,54.97
2022-09-30T00:09:23.737Z,54.74
2022-09-30T00:11:54.299Z,54.87
2022-09-30T00:14:25.131Z,54.72
2022-09-30T00:16:53.713Z,54.64
2022-09-30T00:19:23.398Z,54.77
2022-09-30T00:21:52.103Z,54.88
2022-09-30T00:24:21.808Z,54.59
2022-09-30T00:26:50.595Z,54.88
2022-09-30T00:29:19.832Z,54.76
2022-09-30T00:31:48.614Z,54.80
2022-09-30T00:34:20.131Z,54.89
2022-09-30T00:36:54.657Z,54.84
2022-09-30T00:39:29.892Z,54.73
2022-09-30T00:42:04.113Z,54.93
2022-09-30T00:44:52.054Z,54.65
2022-09-30T00:47:52.583Z,54.60
2022-09-30T00:50:46.358Z,54.97
2022-09-30T00:53:42.071Z,55.01
2022-09-30T00:56:25.700Z,54.93
2022-09-30T00:59:05.647Z,55.13
2022-09-30T01:01:38.993Z,55.35
2022-09-30T01:04:17.169Z,55.16
2022-09-30T01:06:46.153Z,55.37
2022-09-30T01:09:15.133Z,55.26
2022-09-30T01:11:44.633Z,55.28
2022-09-30T01:14:23.108Z,55.08
2022-09-30T01:17:34.628Z,55.21
2022-09-30T01:20:36.196Z,55.21
2022-09-30T01:23:46.207Z,55.10
2022-09-30T01:26:57.808Z,55.15
2022-09-30T01:29:54.375Z,55.16
2022-09-30T01:33:18.293Z,55.19
2022-09-30T01:36:02.632Z,55.02
2022-09-30T01:38:52.067Z,54.96
2022-09-30T01:41:40.815Z,54.99
2022-09-30T01:44:38.083Z,54.96
2022-09-30T01:47:32.024Z,55.08
2022-09-30T01:50:12.551Z,55.03
2022-09-30T01:53:05.484Z,55.10
2022-09-30T01:55:50.899Z,55.15
2022-09-30T01:58:48.020Z,55.24
2022-09-30T02:01:35.255Z,55.11
2022-09-30T02:04:14.845Z,55.31
2022-09-30T02:06:50.304Z,55.42
2022-09-30T02:09:58.618Z,55.31
2022-09-30T02:12:33.145Z,55.48
2022-09-30T02:15:12.577Z,55.46
2022-09-30T02:17:51.200Z,55.46
2022-09-30T02:20:31.067Z,55.39
2022-09-30T02:23:29.143Z,55.49
2022-09-30T02:26:10.094Z,55.49
2022-09-30T02:28:45.647Z,55.62
2022-09-30T02:31:18.424Z,55.59
2022-09-30T02:34:28.572Z,55.35
2022-09-30T02:37:34.737Z,55.44
2022-09-30T02:40:11.102Z,55.66
2022-09-30T02:42:45.823Z,55.55
2022-09-30T02:45:21.368Z,55.59
2022-09-30T02:48:18.827Z,55.32
2022-09-30T02:51:04.441Z,55.49
2022-09-30T02:53:54.288Z,55.39
2022-09-30T02:56:38.949Z,55.54
2022-09-30T02:59:07.734Z,55.57
2022-09-30T03:01:42.516Z,55.55
2022-09-30T03:04:15.961Z,55.52
2022-09-30T03:06:46.078Z,55.59
2022-09-30T03:09:15.707Z,55.64
2022-09-30T03:11:45.617Z,55.84
2022-09-30T03:14:40.082Z,55.49
2022-09-30T03:18:11.520Z,55.65
2022-09-30T03:21:18.287Z,55.68
2022-09-30T03:24:22.496Z,55.65
2022-09-30T03:27:15.800Z,55.83
2022-09-30T03:29:48.191Z,55.90
2022-09-30T03:32:46.001Z,55.89
2022-09-30T03:36:07.292Z,55.85
2022-09-30T03:39:00.656Z,55.98
2022-09-30T03:41:34.740Z,55.92
2022-09-30T03:44:11.349Z,56.08
2022-09-30T03:47:01.478Z,55.96
2022-09-30T03:49:37.635Z,55.95
2022-09-30T03:52:09.304Z,56.15
2022-09-30T03:54:51.015Z,56.51
2022-09-30T03:57:19.167Z,56.42
2022-09-30T03:59:47.463Z,56.32
2022-09-30T04:02:15.441Z,56.29
2022-09-30T04:04:43.279Z,56.41
2022-09-30T04:07:13.273Z,56.26
2022-09-30T04:09:41.470Z,56.36
2022-09-30T04:12:10.868Z,56.11
2022-09-30T04:14:39.934Z,56.30
2022-09-30T04:17:10.250Z,56.43
2022-09-30T04:19:40.756Z,56.45
2022-09-30T04:22:10.109Z,56.39
2022-09-30T04:24:39.475Z,56.37
2022-09-30T04:27:07.467Z,56.63
2022-09-30T04:29:39.147Z,56.41
2022-09-30T04:32:08.085Z,56.50
2022-09-30T04:34:37.924Z,56.52
2022-09-30T04:37:10.611Z,56.56
2022-09-30T04:39:39.441Z,56.56
2022-09-30T04:42:08.420Z,56.50
2022-09-30T04:44:37.100Z,56.38
2022-09-30T04:47:07.200Z,56.51
2022-09-30T04:49:35.672Z,56.47
2022-09-30T04:52:03.545Z,56.48
2022-09-30T04:54:31.556Z,56.43
2022-09-30T04:56:59.681Z,56.47
2022-09-30T04:59:28.764Z,56.45
2022-09-30T05:01:56.778Z,56.41
2022-09-30T05:04:25.361Z,56.54
2022-09-30T05:06:53.442Z,56.53
2022-09-30T05:09:21.991Z,56.54
2022-09-30T05:11:49.994Z,56.46
2022-09-30T05:14:18.573Z,56.44
2022-09-30T05:16:47.103Z,56.43
2022-09-30T05:19:15.386Z,56.38
2022-09-30T05:21:44.927Z,56.18
2022-09-30T05:24:13.527Z,56.11
2022-09-30T05:26:41.850Z,56.20
2022-09-30T05:29:11.841Z,56.30
2022-09-30T05:31:39.905Z,56.39
2022-09-30T05:34:08.826Z,56.45
2022-09-30T05:36:37.017Z,56.38
2022-09-30T05:39:06.672Z,56.66
2022-09-30T05:41:36.678Z,56.48
2022-09-30T05:44:06.093Z,56.50
2022-09-30T05:46:35.579Z,56.43
2022-09-30T05:49:04.932Z,56.51
2022-09-30T05:51:33.111Z,56.71
2022-09-30T05:54:02.058Z,56.56
2022-09-30T05:56:31.522Z,56.48
2022-09-30T05:59:01.417Z,56.43
2022-09-30T06:01:30.463Z,56.53
2022-09-30T06:03:58.846Z,56.47
2022-09-30T06:06:27.610Z,56.41
2022-09-30T06:08:57.516Z,56.39
2022-09-30T06:11:25.660Z,56.33
2022-09-30T06:13:57.045Z,56.32
2022-09-30T06:16:25.559Z,56.36
2022-09-30T06:18:54.464Z,56.48
2022-09-30T06:21:26.632Z,56.25
2022-09-30T06:23:56.380Z,56.50
2022-09-30T06:26:25.770Z,56.35
2022-09-30T06:28:57.085Z,56.25
2022-09-30T06:31:26.488Z,56.24
2022-09-30T06:33:57.404Z,56.40
2022-09-30T06:36:25.691Z,56.41
2022-09-30T06:38:56.110Z,56.08
2022-09-30T06:41:27.230Z,56.08
2022-09-30T06:44:05.557Z,56.10
2022-09-30T06:46:40.527Z,56.07
2022-09-30T06:49:20.020Z,55.88
2022-09-30T06:51:48.048Z,56.13
2022-09-30T06:54:16.657Z,56.01
2022-09-30T06:56:46.746Z,56.02
2022-09-30T06:59:18.163Z,56.01
2022-09-30T07:01:46.948Z,56.14
2022-09-30T07:04:15.435Z,55.99
2022-09-30T07:06:43.922Z,55.95
2022-09-30T07:09:13.866Z,55.88
2022-09-30T07:11:42.423Z,55.80
2022-09-30T07:14:10.704Z,55.56
2022-09-30T07:16:39.238Z,55.53
2022-09-30T07:19:09.383Z,55.27
2022-09-30T07:21:39.134Z,55.18
2022-09-30T07:24:08.025Z,55.39
2022-09-30T07:26:36.977Z,55.32
2022-09-30T07:29:07.521Z,55.18
2022-09-30T07:31:56.767Z,55.31
2022-09-30T07:34:45.901Z,55.23
2022-09-30T07:37:22.956Z,55.03
2022-09-30T07:40:00.498Z,55.16
2022-09-30T07:42:28.613Z,54.94
2022-09-30T07:44:57.003Z,54.81
2022-09-30T07:47:31.652Z,54.91
2022-09-30T07:50:04.352Z,54.59
2022-09-30T07:52:32.531Z,54.52
2022-09-30T07:55:00.797Z,54.56
2022-09-30T07:57:29.883Z,54.52
2022-09-30T07:59:58.107Z,54.34
2022-09-30T08:02:26.358Z,54.34
2022-09-30T08:04:54.613Z,54.29
2022-09-30T08:07:23.612Z,54.44
2022-09-30T08:09:55.802Z,54.30
2022-09-30T08:12:28.331Z,54.10
2022-09-30T08:14:59.370Z,54.01
2022-09-30T08:17:28.947Z,54.11
2022-09-30T08:19:57.614Z,54.00
2022-09-30T08:22:26.796Z,53.91
2022-09-30T08:24:56.460Z,53.86
2022-09-30T08:27:25.607Z,53.77
2022-09-30T08:29:56.137Z,53.68
2022-09-30T08:32:29.711Z,53.52
2022-09-30T08:34:58.755Z,54.11
2022-09-30T08:37:26.768Z,54.07
2022-09-30T08:39:55.077Z,53.67
2022-09-30T08:42:54.229Z,53.44
2022-09-30T08:46:29.457Z,53.35
2022-09-30T08:49:23.260Z,53.43
2022-09-30T08:51:53.823Z,53.27
2022-09-30T08:54:28.234Z,53.17
2022-09-30T08:56:59.082Z,53.02
2022-09-30T09:00:15.948Z,52.91
2022-09-30T09:03:03.695Z,52.74
2022-09-30T09:06:02.097Z,52.85
2022-09-30T09:09:25.518Z,52.76
2022-09-30T09:12:27.025Z,52.64
2022-09-30T09:15:43.763Z,52.92
2022-09-30T09:18:57.788Z,52.56
2022-09-30T09:21:43.335Z,52.54
2022-09-30T09:24:30.472Z,52.45
2022-09-30T09:27:36.786Z,52.68
2022-09-30T09:30:24.978Z,52.49
2022-09-30T09:33:01.552Z,52.37
2022-09-30T09:36:20.627Z,52.22
2022-09-30T09:40:04.359Z,52.24
2022-09-30T09:42:45.591Z,52.03
2022-09-30T09:46:00.816Z,51.91
2022-09-30T09:48:31.224Z,51.71
2022-09-30T09:51:34.575Z,51.74
2022-09-30T09:54:10.268Z,51.41
2022-09-30T09:56:41.806Z,51.28
2022-09-30T09:59:58.649Z,51.13
2022-09-30T10:02:33.538Z,51.15
2022-09-30T10:05:05.754Z,51.34
2022-09-30T10:07:36.251Z,50.90
2022-09-30T10:10:23.476Z,50.90
2022-09-30T10:12:53.086Z,50.99
2022-09-30T10:15:22.670Z,51.00
2022-09-30T10:17:58.625Z,50.72
2022-09-30T10:20:36.498Z,50.83
2022-09-30T10:23:28.456Z,50.88
2022-09-30T10:26:08.097Z,51.06
2022-09-30T10:29:04.955Z,50.90
2022-09-30T10:31:46.613Z,50.79
2022-09-30T10:34:36.567Z,50.88
2022-09-30T10:37:17.957Z,50.74
2022-09-30T10:40:02.942Z,50.49
2022-09-30T10:42:35.098Z,50.77
2022-09-30T10:45:20.077Z,50.50
2022-09-30T10:47:53.866Z,50.68
2022-09-30T10:50:27.248Z,50.52
2022-09-30T10:53:05.957Z,50.64
2022-09-30T10:55:46.040Z,50.59
2022-09-30T10:58:47.655Z,50.33
2022-09-30T11:01:57.455Z,50.64
2022-09-30T11:04:45.184Z,50.27
2022-09-30T11:07:45.184Z,50.09
2022-09-30T11:10:48.753Z,50.34
2022-09-30T11:14:02.839Z,50.44
2022-09-30T11:16:56.348Z,50.36
2022-09-30T11:19:46.253Z,50.63
2022-09-30T11:22:38.667Z,50.76
2022-09-30T11:25:16.978Z,50.57
2022-09-30T11:28:13.447Z,50.41
2022-09-30T11:31:33.480Z,50.30
2022-09-30T11:34:31.617Z,50.10
2022-09-30T11:37:13.788Z,50.09
2022-09-30T11:40:13.595Z,50.08
2022-09-30T11:43:16.784Z,50.22
2022-09-30T11:45:59.760Z,50.18
2022-09-30T11:48:44.270Z,50.14
2022-09-30T11:51:37.243Z,50.15
2022-09-30T11:54:34.062Z,49.72
2022-09-30T11:57:20.454Z,50.16
2022-09-30T11:59:59.894Z,49.97
2022-09-30T12:02:51.576Z,49.78
2022-09-30T12:05:36.178Z,49.50
2022-09-30T12:08:17.999Z,49.05
2022-09-30T12:10:55.254Z,49.22
2022-09-30T12:13:38.785Z,48.79
2022-09-30T12:16:21.617Z,48.86
2022-09-30T12:19:05.971Z,48.58
2022-09-30T12:22:16.357Z,48.55
2022-09-30T12:24:48.165Z,48.59
2022-09-30T12:27:45.548Z,48.41
2022-09-30T12:30:21.975Z,48.53
2022-09-30T12:33:22.307Z,48.21
2022-09-30T12:36:27.440Z,48.30
2022-09-30T12:39:13.953Z,48.04
2022-09-30T12:41:48.444Z,47.72
2022-09-30T12:45:14.585Z,47.51
2022-09-30T12:47:56.641Z,47.26
2022-09-30T12:50:34.797Z,47.06
2022-09-30T12:53:32.698Z,47.05
2022-09-30T12:56:15.583Z,46.59
2022-09-30T12:58:50.361Z,46.44
2022-09-30T13:01:28.272Z,46.14
2022-09-30T13:04:01.749Z,45.92
2022-09-30T13:06:48.425Z,45.48
2022-09-30T13:09:37.412Z,45.14
2022-09-30T13:12:05.709Z,45.36
2022-09-30T13:14:44.050Z,44.67
2022-09-30T13:17:12.605Z,44.61
2022-09-30T13:19:52.232Z,43.91
2022-09-30T13:22:20.386Z,43.74
2022-09-30T13:25:00.907Z,43.50
2022-09-30T13:28:01.324Z,43.29
2022-09-30T13:30:34.642Z,43.37
2022-09-30T13:34:06.702Z,44.29
2022-09-30T13:36:57.978Z,44.28
2022-09-30T13:39:44.086Z,44.27
2022-09-30T13:42:21.035Z,44.07
2022-09-30T13:45:31.963Z,44.13
2022-09-30T13:48:11.194Z,44.33
2022-09-30T13:50:49.210Z,44.86
2022-09-30T13:53:46.245Z,44.85
2022-09-30T13:56:37.890Z,45.14
2022-09-30T14:00:00.227Z,46.15
2022-09-30T14:03:15.066Z,45.66
2022-09-30T14:06:16.144Z,45.70
2022-09-30T14:09:11.709Z,45.05
2022-09-30T14:12:15.929Z,44.88
2022-09-30T14:15:18.936Z,44.61
2022-09-30T14:18:19.730Z,44.15
2022-09-30T14:21:10.982Z,43.88
2022-09-30T14:23:39.834Z,43.73
2022-09-30T14:26:19.773Z,43.16
2022-09-30T14:29:07.475Z,42.70
2022-09-30T14:31:47.360Z,42.44
2022-09-30T14:34:19.121Z,42.49
2022-09-30T14:36:51.408Z,42.55
2022-09-30T14:39:28.400Z,43.60
2022-09-30T14:42:02.271Z,42.92
2022-09-30T14:44:36.758Z,42.67
2022-09-30T14:47:05.546Z,42.28
2022-09-30T14:49:36.547Z,42.44
2022-09-30T14:52:05.270Z,42.42
2022-09-30T14:54:34.457Z,42.55
2022-09-30T14:57:04.213Z,42.38
2022-09-30T14:59:34.824Z,42.42
2022-09-30T15:02:13.516Z,42.52
2022-09-30T15:05:00.446Z,42.39
